sensor_id;sensor_type;location;lat;lon;timestamp;temperature;humidity
50548;DHT22;38013;48.810;8.818;2022-12-18T00:01:22;-8.80;67.90
50548;DHT22;38013;48.810;8.818;2022-12-18T00:03:59;-8.80;67.90
50548;DHT22;38013;48.810;8.818;2022-12-18T00:06:26;-8.80;67.90
50548;DHT22;38013;48.810;8.818;2022-12-18T00:08:54;-8.90;67.90
50548;DHT22;38013;48.810;8.818;2022-12-18T00:11:23;-8.90;67.80
50548;DHT22;38013;48.810;8.818;2022-12-18T00:13:51;-8.90;67.90
50548;DHT22;38013;48.810;8.818;2022-12-18T00:16:20;-8.90;67.90
50548;DHT22;38013;48.810;8.818;2022-12-18T00:18:53;-9.00;67.90
50548;DHT22;38013;48.810;8.818;2022-12-18T00:21:20;-9.00;67.90
50548;DHT22;38013;48.810;8.818;2022-12-18T00:23:47;-9.00;67.90
50548;DHT22;38013;48.810;8.818;2022-12-18T00:26:20;-9.10;67.80
50548;DHT22;38013;48.810;8.818;2022-12-18T00:28:49;-9.10;67.80
50548;DHT22;38013;48.810;8.818;2022-12-18T00:31:17;-9.10;67.90
50548;DHT22;38013;48.810;8.818;2022-12-18T00:33:44;-9.10;67.90
50548;DHT22;38013;48.810;8.818;2022-12-18T00:36:13;-9.20;68.00
50548;DHT22;38013;48.810;8.818;2022-12-18T00:38:41;-9.20;68.00
50548;DHT22;38013;48.810;8.818;2022-12-18T00:41:07;-9.20;68.10
50548;DHT22;38013;48.810;8.818;2022-12-18T00:43:35;-9.30;68.10
50548;DHT22;38013;48.810;8.818;2022-12-18T00:46:01;-9.30;68.20
50548;DHT22;38013;48.810;8.818;2022-12-18T00:48:27;-9.30;68.30
50548;DHT22;38013;48.810;8.818;2022-12-18T00:50:53;-9.30;68.30
50548;DHT22;38013;48.810;8.818;2022-12-18T00:53:19;-9.30;68.40
50548;DHT22;38013;48.810;8.818;2022-12-18T00:55:45;-9.30;68.40
50548;DHT22;38013;48.810;8.818;2022-12-18T00:58:12;-9.30;68.40
50548;DHT22;38013;48.810;8.818;2022-12-18T01:00:39;-9.30;68.50
50548;DHT22;38013;48.810;8.818;2022-12-18T01:03:05;-9.40;68.40
50548;DHT22;38013;48.810;8.818;2022-12-18T01:05:32;-9.40;68.40
50548;DHT22;38013;48.810;8.818;2022-12-18T01:07:58;-9.40;68.40
50548;DHT22;38013;48.810;8.818;2022-12-18T01:10:24;-9.40;68.30
50548;DHT22;38013;48.810;8.818;2022-12-18T01:12:50;-9.40;68.40
50548;DHT22;38013;48.810;8.818;2022-12-18T01:15:17;-9.40;68.40
50548;DHT22;38013;48.810;8.818;2022-12-18T01:17:43;-9.40;68.40
50548;DHT22;38013;48.810;8.818;2022-12-18T01:20:11;-9.40;68.40
50548;DHT22;38013;48.810;8.818;2022-12-18T01:22:38;-9.40;68.40
50548;DHT22;38013;48.810;8.818;2022-12-18T01:25:06;-9.40;68.30
50548;DHT22;38013;48.810;8.818;2022-12-18T01:27:33;-9.40;68.30
50548;DHT22;38013;48.810;8.818;2022-12-18T01:29:59;-9.50;68.40
50548;DHT22;38013;48.810;8.818;2022-12-18T01:32:25;-9.40;68.50
50548;DHT22;38013;48.810;8.818;2022-12-18T01:34:51;-9.40;68.60
50548;DHT22;38013;48.810;8.818;2022-12-18T01:37:17;-9.40;68.70
50548;DHT22;38013;48.810;8.818;2022-12-18T01:39:42;-9.40;68.80
50548;DHT22;38013;48.810;8.818;2022-12-18T01:42:13;-9.40;68.90
50548;DHT22;38013;48.810;8.818;2022-12-18T01:47:30;-9.40;69.00
50548;DHT22;38013;48.810;8.818;2022-12-18T01:50:03;-9.30;69.00
50548;DHT22;38013;48.810;8.818;2022-12-18T01:52:32;-9.40;68.80
50548;DHT22;38013;48.810;8.818;2022-12-18T01:54:59;-9.30;68.80
50548;DHT22;38013;48.810;8.818;2022-12-18T01:57:27;-9.30;68.80
50548;DHT22;38013;48.810;8.818;2022-12-18T01:59:59;-9.30;68.90
50548;DHT22;38013;48.810;8.818;2022-12-18T02:02:28;-9.30;68.90
50548;DHT22;38013;48.810;8.818;2022-12-18T02:04:54;-9.20;68.90
50548;DHT22;38013;48.810;8.818;2022-12-18T02:10:00;-9.20;68.80
50548;DHT22;38013;48.810;8.818;2022-12-18T02:12:43;-9.20;68.80
50548;DHT22;38013;48.810;8.818;2022-12-18T02:15:19;-9.20;68.90
50548;DHT22;38013;48.810;8.818;2022-12-18T02:17:58;-9.20;68.90
50548;DHT22;38013;48.810;8.818;2022-12-18T02:20:45;-9.20;69.00
50548;DHT22;38013;48.810;8.818;2022-12-18T02:23:39;-9.20;69.00
50548;DHT22;38013;48.810;8.818;2022-12-18T02:26:28;-9.10;69.10
50548;DHT22;38013;48.810;8.818;2022-12-18T02:29:03;-9.10;69.20
50548;DHT22;38013;48.810;8.818;2022-12-18T02:31:38;-9.10;69.20
50548;DHT22;38013;48.810;8.818;2022-12-18T02:34:08;-9.20;69.10
50548;DHT22;38013;48.810;8.818;2022-12-18T02:36:40;-9.10;69.20
50548;DHT22;38013;48.810;8.818;2022-12-18T02:39:09;-9.10;69.10
50548;DHT22;38013;48.810;8.818;2022-12-18T02:41:40;-9.10;69.10
50548;DHT22;38013;48.810;8.818;2022-12-18T02:44:10;-9.10;69.00
50548;DHT22;38013;48.810;8.818;2022-12-18T02:46:38;-9.00;69.00
50548;DHT22;38013;48.810;8.818;2022-12-18T02:49:31;-9.00;69.00
50548;DHT22;38013;48.810;8.818;2022-12-18T02:52:34;-9.00;69.00
50548;DHT22;38013;48.810;8.818;2022-12-18T02:58:21;-9.00;69.00
50548;DHT22;38013;48.810;8.818;2022-12-18T03:01:00;-9.00;68.90
50548;DHT22;38013;48.810;8.818;2022-12-18T03:03:43;-8.90;68.90
50548;DHT22;38013;48.810;8.818;2022-12-18T03:06:21;-9.00;68.80
50548;DHT22;38013;48.810;8.818;2022-12-18T03:08:54;-9.00;68.80
50548;DHT22;38013;48.810;8.818;2022-12-18T03:11:26;-8.90;68.90
50548;DHT22;38013;48.810;8.818;2022-12-18T03:14:15;-9.00;68.90
50548;DHT22;38013;48.810;8.818;2022-12-18T03:16:42;-8.90;68.90
50548;DHT22;38013;48.810;8.818;2022-12-18T03:19:19;-9.00;68.90
50548;DHT22;38013;48.810;8.818;2022-12-18T03:21:53;-9.00;68.90
50548;DHT22;38013;48.810;8.818;2022-12-18T03:24:24;-8.90;68.90
50548;DHT22;38013;48.810;8.818;2022-12-18T03:26:58;-9.00;68.90
50548;DHT22;38013;48.810;8.818;2022-12-18T03:29:46;-9.00;68.90
50548;DHT22;38013;48.810;8.818;2022-12-18T03:32:28;-9.00;68.90
50548;DHT22;38013;48.810;8.818;2022-12-18T03:35:01;-9.00;68.90
50548;DHT22;38013;48.810;8.818;2022-12-18T03:37:32;-9.00;68.90
50548;DHT22;38013;48.810;8.818;2022-12-18T03:39:58;-9.00;69.00
50548;DHT22;38013;48.810;8.818;2022-12-18T03:45:12;-9.00;69.00
50548;DHT22;38013;48.810;8.818;2022-12-18T03:47:59;-9.00;68.90
50548;DHT22;38013;48.810;8.818;2022-12-18T03:56:02;-9.10;68.90
50548;DHT22;38013;48.810;8.818;2022-12-18T03:58:35;-9.10;68.90
50548;DHT22;38013;48.810;8.818;2022-12-18T04:01:18;-9.10;68.90
50548;DHT22;38013;48.810;8.818;2022-12-18T04:03:47;-9.10;68.90
50548;DHT22;38013;48.810;8.818;2022-12-18T04:06:16;-9.10;69.00
50548;DHT22;38013;48.810;8.818;2022-12-18T04:08:44;-9.10;69.00
50548;DHT22;38013;48.810;8.818;2022-12-18T04:11:13;-9.10;69.10
50548;DHT22;38013;48.810;8.818;2022-12-18T04:13:42;-9.10;69.20
50548;DHT22;38013;48.810;8.818;2022-12-18T04:16:15;-9.10;69.20
50548;DHT22;38013;48.810;8.818;2022-12-18T04:18:43;-9.10;69.20
50548;DHT22;38013;48.810;8.818;2022-12-18T04:21:10;-9.10;69.30
50548;DHT22;38013;48.810;8.818;2022-12-18T04:23:36;-9.10;69.40
50548;DHT22;38013;48.810;8.818;2022-12-18T04:26:02;-9.00;69.60
50548;DHT22;38013;48.810;8.818;2022-12-18T04:28:46;-9.00;69.70
50548;DHT22;38013;48.810;8.818;2022-12-18T04:31:13;-9.00;69.70
50548;DHT22;38013;48.810;8.818;2022-12-18T04:33:38;-9.00;69.70
50548;DHT22;38013;48.810;8.818;2022-12-18T04:36:05;-8.90;69.70
50548;DHT22;38013;48.810;8.818;2022-12-18T04:38:31;-8.90;69.70
50548;DHT22;38013;48.810;8.818;2022-12-18T04:41:04;-8.90;69.70
50548;DHT22;38013;48.810;8.818;2022-12-18T04:43:30;-8.90;69.70
50548;DHT22;38013;48.810;8.818;2022-12-18T04:46:03;-8.90;69.70
50548;DHT22;38013;48.810;8.818;2022-12-18T04:48:29;-8.90;69.70
50548;DHT22;38013;48.810;8.818;2022-12-18T04:50:55;-8.90;69.80
50548;DHT22;38013;48.810;8.818;2022-12-18T04:53:20;-8.90;69.80
50548;DHT22;38013;48.810;8.818;2022-12-18T04:55:46;-8.90;69.90
50548;DHT22;38013;48.810;8.818;2022-12-18T04:58:12;-8.90;70.60
50548;DHT22;38013;48.810;8.818;2022-12-18T05:00:38;-8.90;70.10
50548;DHT22;38013;48.810;8.818;2022-12-18T05:03:03;-8.90;70.20
50548;DHT22;38013;48.810;8.818;2022-12-18T05:05:29;-8.90;70.40
50548;DHT22;38013;48.810;8.818;2022-12-18T05:07:55;-8.90;70.50
50548;DHT22;38013;48.810;8.818;2022-12-18T05:10:20;-8.80;70.70
50548;DHT22;38013;48.810;8.818;2022-12-18T05:12:46;-8.80;70.80
50548;DHT22;38013;48.810;8.818;2022-12-18T05:15:31;-8.80;70.80
50548;DHT22;38013;48.810;8.818;2022-12-18T05:17:58;-8.80;70.80
50548;DHT22;38013;48.810;8.818;2022-12-18T05:20:24;-8.70;70.80
50548;DHT22;38013;48.810;8.818;2022-12-18T05:22:51;-8.70;70.70
50548;DHT22;38013;48.810;8.818;2022-12-18T05:25:17;-8.70;70.80
50548;DHT22;38013;48.810;8.818;2022-12-18T05:27:44;-8.70;70.80
50548;DHT22;38013;48.810;8.818;2022-12-18T05:30:11;-8.60;70.80
50548;DHT22;38013;48.810;8.818;2022-12-18T05:32:38;-8.60;70.80
50548;DHT22;38013;48.810;8.818;2022-12-18T05:35:04;-8.60;70.80
50548;DHT22;38013;48.810;8.818;2022-12-18T05:37:31;-8.60;70.90
50548;DHT22;38013;48.810;8.818;2022-12-18T05:39:57;-8.50;70.90
50548;DHT22;38013;48.810;8.818;2022-12-18T05:42:22;-8.50;71.00
50548;DHT22;38013;48.810;8.818;2022-12-18T05:44:48;-8.50;71.00
50548;DHT22;38013;48.810;8.818;2022-12-18T05:47:14;-8.40;71.10
50548;DHT22;38013;48.810;8.818;2022-12-18T05:49:40;-8.40;71.20
50548;DHT22;38013;48.810;8.818;2022-12-18T05:52:05;-8.30;71.30
50548;DHT22;38013;48.810;8.818;2022-12-18T05:54:31;-8.30;71.30
50548;DHT22;38013;48.810;8.818;2022-12-18T05:56:57;-8.20;71.30
50548;DHT22;38013;48.810;8.818;2022-12-18T05:59:24;-8.20;71.30
50548;DHT22;38013;48.810;8.818;2022-12-18T06:01:49;-8.10;71.30
50548;DHT22;38013;48.810;8.818;2022-12-18T06:04:15;-8.10;71.30
50548;DHT22;38013;48.810;8.818;2022-12-18T06:06:41;-8.00;71.40
50548;DHT22;38013;48.810;8.818;2022-12-18T06:09:07;-8.00;72.00
50548;DHT22;38013;48.810;8.818;2022-12-18T06:11:34;-7.90;71.50
50548;DHT22;38013;48.810;8.818;2022-12-18T06:14:02;-7.90;71.60
50548;DHT22;38013;48.810;8.818;2022-12-18T06:16:28;-7.80;71.70
50548;DHT22;38013;48.810;8.818;2022-12-18T06:18:59;-7.80;71.80
50548;DHT22;38013;48.810;8.818;2022-12-18T06:21:25;-7.80;71.90
50548;DHT22;38013;48.810;8.818;2022-12-18T06:23:52;-7.70;71.90
50548;DHT22;38013;48.810;8.818;2022-12-18T06:26:18;-7.70;72.00
50548;DHT22;38013;48.810;8.818;2022-12-18T06:28:43;-7.60;72.00
50548;DHT22;38013;48.810;8.818;2022-12-18T06:31:10;-7.60;72.10
50548;DHT22;38013;48.810;8.818;2022-12-18T06:33:36;-7.50;72.20
50548;DHT22;38013;48.810;8.818;2022-12-18T06:36:08;-7.50;72.30
50548;DHT22;38013;48.810;8.818;2022-12-18T06:38:38;-7.40;72.50
50548;DHT22;38013;48.810;8.818;2022-12-18T06:41:08;-7.40;72.50
50548;DHT22;38013;48.810;8.818;2022-12-18T06:43:41;-7.40;73.20
50548;DHT22;38013;48.810;8.818;2022-12-18T06:46:07;-7.30;72.30
50548;DHT22;38013;48.810;8.818;2022-12-18T06:48:33;-7.30;72.20
50548;DHT22;38013;48.810;8.818;2022-12-18T06:50:58;-7.20;72.30
50548;DHT22;38013;48.810;8.818;2022-12-18T06:53:25;-7.30;72.30
50548;DHT22;38013;48.810;8.818;2022-12-18T06:55:50;-7.20;72.30
50548;DHT22;38013;48.810;8.818;2022-12-18T06:58:16;-7.20;72.40
50548;DHT22;38013;48.810;8.818;2022-12-18T07:00:42;-7.10;73.00
50548;DHT22;38013;48.810;8.818;2022-12-18T07:03:09;-7.10;72.30
50548;DHT22;38013;48.810;8.818;2022-12-18T07:05:39;-7.00;72.20
50548;DHT22;38013;48.810;8.818;2022-12-18T07:08:06;-7.00;72.20
50548;DHT22;38013;48.810;8.818;2022-12-18T07:10:32;-7.00;72.10
50548;DHT22;38013;48.810;8.818;2022-12-18T07:12:57;-6.90;72.10
50548;DHT22;38013;48.810;8.818;2022-12-18T07:15:23;-6.90;72.10
50548;DHT22;38013;48.810;8.818;2022-12-18T07:17:49;-6.90;72.20
50548;DHT22;38013;48.810;8.818;2022-12-18T07:20:15;-6.90;72.20
50548;DHT22;38013;48.810;8.818;2022-12-18T07:22:40;-6.90;72.10
50548;DHT22;38013;48.810;8.818;2022-12-18T07:25:07;-6.80;72.20
50548;DHT22;38013;48.810;8.818;2022-12-18T07:27:32;-6.80;72.20
50548;DHT22;38013;48.810;8.818;2022-12-18T07:29:58;-6.80;72.20
50548;DHT22;38013;48.810;8.818;2022-12-18T07:32:24;-6.70;72.20
50548;DHT22;38013;48.810;8.818;2022-12-18T07:34:49;-6.70;72.20
50548;DHT22;38013;48.810;8.818;2022-12-18T07:37:15;-6.70;72.10
50548;DHT22;38013;48.810;8.818;2022-12-18T07:39:41;-6.70;72.10
50548;DHT22;38013;48.810;8.818;2022-12-18T07:42:09;-6.60;72.20
50548;DHT22;38013;48.810;8.818;2022-12-18T07:44:54;-6.50;72.30
50548;DHT22;38013;48.810;8.818;2022-12-18T07:47:19;-6.50;72.40
50548;DHT22;38013;48.810;8.818;2022-12-18T07:49:45;-6.50;72.50
50548;DHT22;38013;48.810;8.818;2022-12-18T07:52:11;-6.50;72.60
50548;DHT22;38013;48.810;8.818;2022-12-18T07:54:38;-6.40;72.70
50548;DHT22;38013;48.810;8.818;2022-12-18T07:57:04;-6.40;72.80
50548;DHT22;38013;48.810;8.818;2022-12-18T07:59:30;-6.30;72.90
50548;DHT22;38013;48.810;8.818;2022-12-18T08:01:55;-6.30;73.00
50548;DHT22;38013;48.810;8.818;2022-12-18T08:04:21;-6.20;73.10
50548;DHT22;38013;48.810;8.818;2022-12-18T08:06:47;-6.10;73.20
50548;DHT22;38013;48.810;8.818;2022-12-18T08:09:13;-6.10;73.20
50548;DHT22;38013;48.810;8.818;2022-12-18T08:11:39;-6.00;73.30
50548;DHT22;38013;48.810;8.818;2022-12-18T08:14:04;-6.00;73.40
50548;DHT22;38013;48.810;8.818;2022-12-18T08:16:30;-5.90;73.60
50548;DHT22;38013;48.810;8.818;2022-12-18T08:18:56;-5.80;73.60
50548;DHT22;38013;48.810;8.818;2022-12-18T08:21:29;-5.70;73.80
50548;DHT22;38013;48.810;8.818;2022-12-18T08:24:00;-5.60;73.90
50548;DHT22;38013;48.810;8.818;2022-12-18T08:26:28;-5.50;74.00
50548;DHT22;38013;48.810;8.818;2022-12-18T08:28:56;-5.40;74.10
50548;DHT22;38013;48.810;8.818;2022-12-18T08:31:24;-5.40;74.10
50548;DHT22;38013;48.810;8.818;2022-12-18T08:33:52;-5.20;74.10
50548;DHT22;38013;48.810;8.818;2022-12-18T08:36:18;-5.10;74.20
50548;DHT22;38013;48.810;8.818;2022-12-18T08:38:45;-5.00;74.20
50548;DHT22;38013;48.810;8.818;2022-12-18T08:41:13;-4.90;74.20
50548;DHT22;38013;48.810;8.818;2022-12-18T08:43:40;-4.80;74.20
50548;DHT22;38013;48.810;8.818;2022-12-18T08:46:27;-4.70;74.20
50548;DHT22;38013;48.810;8.818;2022-12-18T08:48:54;-4.60;74.20
50548;DHT22;38013;48.810;8.818;2022-12-18T08:51:21;-4.50;74.20
50548;DHT22;38013;48.810;8.818;2022-12-18T08:53:47;-4.30;74.20
50548;DHT22;38013;48.810;8.818;2022-12-18T08:56:14;-4.20;74.90
50548;DHT22;38013;48.810;8.818;2022-12-18T08:58:40;-4.10;74.10
50548;DHT22;38013;48.810;8.818;2022-12-18T09:01:09;-4.00;74.20
50548;DHT22;38013;48.810;8.818;2022-12-18T09:03:37;-3.90;74.30
50548;DHT22;38013;48.810;8.818;2022-12-18T09:06:04;-3.80;74.30
50548;DHT22;38013;48.810;8.818;2022-12-18T09:08:30;-3.60;74.40
50548;DHT22;38013;48.810;8.818;2022-12-18T09:10:56;-3.50;74.30
50548;DHT22;38013;48.810;8.818;2022-12-18T09:13:22;-3.40;74.20
50548;DHT22;38013;48.810;8.818;2022-12-18T09:15:50;-3.30;74.20
50548;DHT22;38013;48.810;8.818;2022-12-18T09:18:19;-3.20;74.20
50548;DHT22;38013;48.810;8.818;2022-12-18T09:20:46;-3.10;74.10
50548;DHT22;38013;48.810;8.818;2022-12-18T09:23:12;-3.00;73.90
50548;DHT22;38013;48.810;8.818;2022-12-18T09:25:39;-2.90;73.80
50548;DHT22;38013;48.810;8.818;2022-12-18T09:28:16;-2.80;73.70
50548;DHT22;38013;48.810;8.818;2022-12-18T09:30:45;-2.70;73.60
50548;DHT22;38013;48.810;8.818;2022-12-18T09:33:15;-2.60;73.60
50548;DHT22;38013;48.810;8.818;2022-12-18T09:35:43;-2.50;73.60
50548;DHT22;38013;48.810;8.818;2022-12-18T09:38:16;-2.40;73.60
50548;DHT22;38013;48.810;8.818;2022-12-18T09:40:53;-2.40;73.40
50548;DHT22;38013;48.810;8.818;2022-12-18T09:44:05;-2.30;73.30
50548;DHT22;38013;48.810;8.818;2022-12-18T09:46:33;-2.20;73.40
50548;DHT22;38013;48.810;8.818;2022-12-18T09:49:07;-2.10;73.20
50548;DHT22;38013;48.810;8.818;2022-12-18T09:52:02;-2.00;73.90
50548;DHT22;38013;48.810;8.818;2022-12-18T09:54:38;-1.90;73.30
50548;DHT22;38013;48.810;8.818;2022-12-18T09:57:21;-1.80;73.30
50548;DHT22;38013;48.810;8.818;2022-12-18T09:59:58;-1.70;73.20
50548;DHT22;38013;48.810;8.818;2022-12-18T10:02:37;-1.60;73.40
50548;DHT22;38013;48.810;8.818;2022-12-18T10:08:24;-1.30;73.30
50548;DHT22;38013;48.810;8.818;2022-12-18T10:11:01;-1.10;73.60
50548;DHT22;38013;48.810;8.818;2022-12-18T10:17:02;-0.70;73.30
50548;DHT22;38013;48.810;8.818;2022-12-18T10:22:39;-0.20;73.40
50548;DHT22;38013;48.810;8.818;2022-12-18T10:28:09;0.30;72.90
50548;DHT22;38013;48.810;8.818;2022-12-18T10:30:39;0.60;72.90
50548;DHT22;38013;48.810;8.818;2022-12-18T10:33:05;0.80;73.10
50548;DHT22;38013;48.810;8.818;2022-12-18T10:35:36;1.10;72.80
50548;DHT22;38013;48.810;8.818;2022-12-18T10:38:20;1.30;72.20
50548;DHT22;38013;48.810;8.818;2022-12-18T10:40:59;1.50;71.50
50548;DHT22;38013;48.810;8.818;2022-12-18T10:43:36;1.80;71.00
50548;DHT22;38013;48.810;8.818;2022-12-18T10:48:55;2.20;70.30
50548;DHT22;38013;48.810;8.818;2022-12-18T10:51:48;2.50;69.30
50548;DHT22;38013;48.810;8.818;2022-12-18T10:54:20;2.80;68.20
50548;DHT22;38013;48.810;8.818;2022-12-18T10:56:47;3.00;68.90
50548;DHT22;38013;48.810;8.818;2022-12-18T10:59:15;3.30;69.20
50548;DHT22;38013;48.810;8.818;2022-12-18T11:07:03;4.10;67.90
50548;DHT22;38013;48.810;8.818;2022-12-18T11:09:36;4.30;66.90
50548;DHT22;38013;48.810;8.818;2022-12-18T11:12:14;4.60;66.60
50548;DHT22;38013;48.810;8.818;2022-12-18T11:14:51;4.80;66.70
50548;DHT22;38013;48.810;8.818;2022-12-18T11:17:25;5.00;66.20
50548;DHT22;38013;48.810;8.818;2022-12-18T11:19:59;5.10;65.70
50548;DHT22;38013;48.810;8.818;2022-12-18T11:22:28;5.30;64.80
50548;DHT22;38013;48.810;8.818;2022-12-18T11:24:58;5.50;64.80
50548;DHT22;38013;48.810;8.818;2022-12-18T11:27:24;5.60;64.10
50548;DHT22;38013;48.810;8.818;2022-12-18T11:29:51;5.70;64.10
50548;DHT22;38013;48.810;8.818;2022-12-18T11:32:29;5.80;63.70
50548;DHT22;38013;48.810;8.818;2022-12-18T11:43:41;6.20;62.60
50548;DHT22;38013;48.810;8.818;2022-12-18T11:46:23;6.30;60.90
50548;DHT22;38013;48.810;8.818;2022-12-18T11:49:03;6.30;61.60
50548;DHT22;38013;48.810;8.818;2022-12-18T11:51:41;6.30;60.90
50548;DHT22;38013;48.810;8.818;2022-12-18T11:54:14;6.40;61.40
50548;DHT22;38013;48.810;8.818;2022-12-18T11:56:47;6.30;61.30
50548;DHT22;38013;48.810;8.818;2022-12-18T11:59:45;6.30;60.20
50548;DHT22;38013;48.810;8.818;2022-12-18T12:05:26;6.00;58.70
50548;DHT22;38013;48.810;8.818;2022-12-18T12:11:04;5.70;59.40
50548;DHT22;38013;48.810;8.818;2022-12-18T12:14:21;5.40;58.70
50548;DHT22;38013;48.810;8.818;2022-12-18T12:23:01;4.60;60.00
50548;DHT22;38013;48.810;8.818;2022-12-18T12:25:34;4.30;59.50
50548;DHT22;38013;48.810;8.818;2022-12-18T12:28:57;4.10;60.60
50548;DHT22;38013;48.810;8.818;2022-12-18T12:39:47;3.30;61.70
50548;DHT22;38013;48.810;8.818;2022-12-18T12:45:41;3.10;61.90
50548;DHT22;38013;48.810;8.818;2022-12-18T12:51:29;2.90;62.10
50548;DHT22;38013;48.810;8.818;2022-12-18T12:53:59;2.80;62.40
50548;DHT22;38013;48.810;8.818;2022-12-18T12:56:41;2.70;62.80
50548;DHT22;38013;48.810;8.818;2022-12-18T12:59:21;2.70;62.80
50548;DHT22;38013;48.810;8.818;2022-12-18T13:08:30;2.50;63.20
50548;DHT22;38013;48.810;8.818;2022-12-18T13:10:58;2.40;63.60
50548;DHT22;38013;48.810;8.818;2022-12-18T13:13:56;2.40;63.80
50548;DHT22;38013;48.810;8.818;2022-12-18T13:16:26;2.40;63.70
50548;DHT22;38013;48.810;8.818;2022-12-18T13:18:57;2.30;63.90
50548;DHT22;38013;48.810;8.818;2022-12-18T13:21:27;2.30;63.90
50548;DHT22;38013;48.810;8.818;2022-12-18T13:23:55;2.30;64.00
50548;DHT22;38013;48.810;8.818;2022-12-18T13:28:53;2.20;63.90
50548;DHT22;38013;48.810;8.818;2022-12-18T13:36:43;2.10;64.00
50548;DHT22;38013;48.810;8.818;2022-12-18T13:41:52;2.00;64.30
50548;DHT22;38013;48.810;8.818;2022-12-18T13:44:59;2.00;64.30
50548;DHT22;38013;48.810;8.818;2022-12-18T13:47:43;1.90;64.50
50548;DHT22;38013;48.810;8.818;2022-12-18T13:50:15;1.80;64.30
50548;DHT22;38013;48.810;8.818;2022-12-18T13:52:51;1.80;64.50
50548;DHT22;38013;48.810;8.818;2022-12-18T13:55:19;1.70;64.60
50548;DHT22;38013;48.810;8.818;2022-12-18T13:57:46;1.60;64.70
50548;DHT22;38013;48.810;8.818;2022-12-18T14:02:49;1.50;64.80
50548;DHT22;38013;48.810;8.818;2022-12-18T14:05:32;1.50;64.90
50548;DHT22;38013;48.810;8.818;2022-12-18T14:08:05;1.40;64.80
50548;DHT22;38013;48.810;8.818;2022-12-18T14:10:33;1.40;65.00
50548;DHT22;38013;48.810;8.818;2022-12-18T14:13:05;1.30;65.00
50548;DHT22;38013;48.810;8.818;2022-12-18T14:15:43;1.30;65.10
50548;DHT22;38013;48.810;8.818;2022-12-18T14:21:22;1.10;65.10
50548;DHT22;38013;48.810;8.818;2022-12-18T14:23:49;1.00;65.20
50548;DHT22;38013;48.810;8.818;2022-12-18T14:26:30;1.00;65.40
50548;DHT22;38013;48.810;8.818;2022-12-18T14:28:58;0.90;65.40
50548;DHT22;38013;48.810;8.818;2022-12-18T14:31:29;0.90;65.50
50548;DHT22;38013;48.810;8.818;2022-12-18T14:33:56;0.80;65.70
50548;DHT22;38013;48.810;8.818;2022-12-18T14:36:24;0.80;65.80
50548;DHT22;38013;48.810;8.818;2022-12-18T14:38:56;0.70;65.90
50548;DHT22;38013;48.810;8.818;2022-12-18T14:41:23;0.70;66.00
50548;DHT22;38013;48.810;8.818;2022-12-18T14:43:51;0.60;66.00
50548;DHT22;38013;48.810;8.818;2022-12-18T14:46:37;0.60;66.10
50548;DHT22;38013;48.810;8.818;2022-12-18T14:49:04;0.50;66.20
50548;DHT22;38013;48.810;8.818;2022-12-18T14:51:51;0.50;66.20
50548;DHT22;38013;48.810;8.818;2022-12-18T14:54:20;0.40;66.30
50548;DHT22;38013;48.810;8.818;2022-12-18T14:57:13;0.30;66.30
50548;DHT22;38013;48.810;8.818;2022-12-18T14:59:51;0.30;66.60
50548;DHT22;38013;48.810;8.818;2022-12-18T15:02:23;0.30;66.50
50548;DHT22;38013;48.810;8.818;2022-12-18T15:07:48;0.10;66.90
50548;DHT22;38013;48.810;8.818;2022-12-18T15:10:16;0.00;66.70
50548;DHT22;38013;48.810;8.818;2022-12-18T15:12:49;0.00;66.80
50548;DHT22;38013;48.810;8.818;2022-12-18T15:20:44;-0.20;67.20
50548;DHT22;38013;48.810;8.818;2022-12-18T15:25:58;-0.30;67.50
50548;DHT22;38013;48.810;8.818;2022-12-18T15:33:41;-0.50;67.50
50548;DHT22;38013;48.810;8.818;2022-12-18T15:36:16;-0.50;67.70
50548;DHT22;38013;48.810;8.818;2022-12-18T15:38:46;-0.50;67.80
50548;DHT22;38013;48.810;8.818;2022-12-18T15:41:17;-0.60;67.90
50548;DHT22;38013;48.810;8.818;2022-12-18T15:43:45;-0.60;68.00
50548;DHT22;38013;48.810;8.818;2022-12-18T15:48:43;-0.70;68.20
50548;DHT22;38013;48.810;8.818;2022-12-18T15:51:29;-0.80;68.30
50548;DHT22;38013;48.810;8.818;2022-12-18T15:54:00;-0.90;68.60
50548;DHT22;38013;48.810;8.818;2022-12-18T15:56:29;-0.90;68.40
50548;DHT22;38013;48.810;8.818;2022-12-18T15:59:18;-0.90;68.50
50548;DHT22;38013;48.810;8.818;2022-12-18T16:01:48;-1.00;68.60
50548;DHT22;38013;48.810;8.818;2022-12-18T16:04:17;-0.90;68.70
50548;DHT22;38013;48.810;8.818;2022-12-18T16:06:45;-1.00;68.80
50548;DHT22;38013;48.810;8.818;2022-12-18T16:09:12;-1.00;69.20
50548;DHT22;38013;48.810;8.818;2022-12-18T16:11:41;-1.00;69.00
50548;DHT22;38013;48.810;8.818;2022-12-18T16:16:50;-1.00;69.60
50548;DHT22;38013;48.810;8.818;2022-12-18T16:19:17;-1.00;69.00
50548;DHT22;38013;48.810;8.818;2022-12-18T16:21:45;-1.00;69.10
50548;DHT22;38013;48.810;8.818;2022-12-18T16:24:19;-1.00;69.30
50548;DHT22;38013;48.810;8.818;2022-12-18T16:26:49;-1.00;69.60
50548;DHT22;38013;48.810;8.818;2022-12-18T16:29:16;-1.10;69.50
50548;DHT22;38013;48.810;8.818;2022-12-18T16:31:43;-1.10;69.60
50548;DHT22;38013;48.810;8.818;2022-12-18T16:36:50;-1.00;70.70
50548;DHT22;38013;48.810;8.818;2022-12-18T16:39:17;-1.00;70.00
50548;DHT22;38013;48.810;8.818;2022-12-18T16:41:43;-1.00;70.10
50548;DHT22;38013;48.810;8.818;2022-12-18T16:44:09;-1.00;70.10
50548;DHT22;38013;48.810;8.818;2022-12-18T16:46:36;-1.00;70.20
50548;DHT22;38013;48.810;8.818;2022-12-18T16:49:02;-1.00;70.20
50548;DHT22;38013;48.810;8.818;2022-12-18T16:51:28;-1.00;70.30
50548;DHT22;38013;48.810;8.818;2022-12-18T16:53:54;-1.00;70.30
50548;DHT22;38013;48.810;8.818;2022-12-18T16:56:21;-0.90;70.30
50548;DHT22;38013;48.810;8.818;2022-12-18T16:58:56;-0.90;70.30
50548;DHT22;38013;48.810;8.818;2022-12-18T17:01:23;-0.90;70.50
50548;DHT22;38013;48.810;8.818;2022-12-18T17:03:57;-0.90;70.40
50548;DHT22;38013;48.810;8.818;2022-12-18T17:06:29;-0.90;70.40
50548;DHT22;38013;48.810;8.818;2022-12-18T17:09:05;-0.90;70.30
50548;DHT22;38013;48.810;8.818;2022-12-18T17:11:32;-0.90;70.40
50548;DHT22;38013;48.810;8.818;2022-12-18T17:14:05;-0.80;70.40
50548;DHT22;38013;48.810;8.818;2022-12-18T17:16:32;-0.80;70.50
50548;DHT22;38013;48.810;8.818;2022-12-18T17:19:00;-0.80;70.40
50548;DHT22;38013;48.810;8.818;2022-12-18T17:21:26;-0.80;70.40
50548;DHT22;38013;48.810;8.818;2022-12-18T17:23:51;-0.80;70.40
50548;DHT22;38013;48.810;8.818;2022-12-18T17:26:17;-0.80;70.40
50548;DHT22;38013;48.810;8.818;2022-12-18T17:28:43;-0.80;70.40
50548;DHT22;38013;48.810;8.818;2022-12-18T17:31:11;-0.80;70.40
50548;DHT22;38013;48.810;8.818;2022-12-18T17:33:38;-0.70;70.50
50548;DHT22;38013;48.810;8.818;2022-12-18T17:36:05;-0.70;70.50
50548;DHT22;38013;48.810;8.818;2022-12-18T17:38:31;-0.70;70.50
50548;DHT22;38013;48.810;8.818;2022-12-18T17:41:02;-0.70;70.50
50548;DHT22;38013;48.810;8.818;2022-12-18T17:43:32;-0.70;70.60
50548;DHT22;38013;48.810;8.818;2022-12-18T17:46:04;-0.70;70.50
50548;DHT22;38013;48.810;8.818;2022-12-18T17:48:31;-0.60;70.60
50548;DHT22;38013;48.810;8.818;2022-12-18T17:51:06;-0.70;70.60
50548;DHT22;38013;48.810;8.818;2022-12-18T17:53:32;-0.70;70.70
50548;DHT22;38013;48.810;8.818;2022-12-18T17:56:00;-0.60;71.30
50548;DHT22;38013;48.810;8.818;2022-12-18T17:58:28;-0.70;70.60